Weather observations for the past three days for
Del Rio, Del Rio International Airport
Metric (Imperial)
Date Time (cdt) Wind (kph) Vis. (km) Weather Sky Cond. Temperature (ºC) Relative Humidity Wind Chill (°C) Heat Index (°C) Pressure Precipitation (cm)
Air Dwpt 6 hour altimeter (cm) sea level (mb) 1 hr 3 hr 6 hr
Max. Min.
07 19:53 E 9 16.09 Overcast FEW010 OVC024 17.2 15.6 90% 76.05 1013.4
07 18:53 Vrbl 7 16.09 Overcast BKN010 OVC028 17.2 15.6 17.8 16.7 90% 76.1 1013.9 0.08
07 17:53 NE 9 16.09 Overcast OVC012 17.2 15.6 90% 76.07 1013.8
07 16:53 N 7 14.48 Overcast SCT004 BKN008 OVC033 16.7 16.1 96% 76.12 1014.3 0.05
07 15:51 N 11 16.09 Overcast SCT007 OVC012 16.7 15.6 93% 76.17 1014.9 0.03 0.03
07 14:53 N 11 16.09 Overcast OVC011 16.7 15.6 93% 76.23 1015.7
07 13:53 N 9 16.09 Overcast OVC011 17.2 15 87% 76.25 1016.1
07 12:53 N 11 16.09 Overcast OVC010 17.8 15.6 20.6 16.7 87% 76.25 1016.1 0.05
07 11:53 N 13 16.09 Overcast OVC009 16.7 15 90% 76.28 1016.3 0.03
07 10:53 NE 19 16.09 Thunderstorm in Vicinity FEW008 OVC019 16.7 15 90% 76.28 1016.4 0.03
07 09:53 N 19 G 30 9.66 Fog/Mist OVC010 17.8 16.7 93% 76.17 1015.0
07 08:53 N 6 16.09 Overcast OVC013 20 17.8 87% 76.17 1014.7
07 07:53 SE 7 16.09 Overcast OVC015 20.6 17.2 81% 76.15 1014.2
07 06:53 N 6 16.09 Overcast OVC018 20.6 16.7 22.8 20.6 78% 76.07 1013.1
07 05:53 NE 9 16.09 Overcast OVC017 21.1 16.1 73% 76.02 1012.5
07 04:53 E 9 16.09 Overcast OVC016 21.1 16.7 76% 76 1012.2
07 03:53 E 7 16.09 Overcast OVC020 21.1 16.7 76% 76 1012.0
07 02:53 E 11 16.09 Partly Cloudy FEW030 SCT046 21.1 16.1 73% 76.02 1012.5
07 01:53 E 11 16.09 Mostly Cloudy BKN033 21.7 16.1 71% 76.02 1012.7
07 00:53 E 11 16.09 Fair CLR 22.8 16.7 30.6 22.8 69% 76 1012.2
06 23:53 E 9 16.09 Fair CLR 23.3 17.2 69% 75.97 1012.1
06 22:53 NE 9 16.09 Fair CLR 24.4 17.2 64% 25 75.87 1010.6
06 21:53 NE 11 16.09 Fair CLR 26.1 16.1 54% 27 75.82 1009.7
06 20:53 NE 9 16.09 Fair CLR 27.8 15 46% 28 75.77 1009.2
06 19:53 NE 13 16.09 Fair CLR 29.4 14.4 40% 29 75.72 1008.3
06 18:53 NE 13 G 31 16.09 Fair CLR 30.6 13.9 31.7 28.3 36% 30 75.67 1007.6
06 17:53 NE 15 G 31 16.09 Fair CLR 31.1 14.4 36% 31 75.64 1007.2
06 16:53 NE 17 G 33 16.09 Fair CLR 31.1 16.1 40% 31 75.62 1007.0
06 15:53 NE 13 G 28 16.09 Fair CLR 31.1 15.6 39% 31 75.67 1007.7
06 14:53 Vrbl 11 16.09 Fair CLR 29.4 18.9 53% 31 75.69 1008.0
06 13:53 N 11 16.09 A Few Clouds FEW048 28.9 21.1 63% 31 75.74 1008.8
06 12:53 NE 11 16.09 Fair CLR 29.4 20.6 29.4 24.4 59% 32 75.82 1009.5
06 11:53 NE 17 G 31 16.09 Partly Cloudy FEW013 SCT018 25 21.1 79% 26 75.79 1009.4
06 10:53 NE 9 16.09 Overcast BKN012 OVC041 26.1 22.8 82% 28 75.74 1008.8
06 09:53 SE 6 16.09 Overcast OVC011 25 22.8 88% 26 75.72 1008.3
06 08:53 SE 15 16.09 Overcast OVC011 25 22.8 88% 26 75.64 1007.4
06 07:53 E 17 16.09 Overcast BKN009 OVC023 24.4 22.2 88% 25 75.59 1006.7
06 06:53 SE 13 16.09 Overcast OVC011 24.4 22.2 26.7 24.4 88% 25 75.57 1006.2
06 05:53 E 11 16.09 Overcast OVC012 25 22.2 85% 26 75.54 1006.0
06 04:53 SE 15 16.09 Overcast OVC013 25 22.8 88% 26 75.54 1005.9
06 03:53 E 17 16.09 Overcast OVC014 25.6 22.8 85% 27 75.51 1005.5
06 02:53 E 13 G 33 16.09 A Few Clouds FEW015 25.6 22.2 82% 27 75.49 1005.2
06 01:53 E 17 16.09 Overcast FEW080 OVC100 26.7 22.2 76% 29 75.51 1005.5
06 00:53 E 13 16.09 Overcast OVC100 26.1 21.1 32.2 25 74% 28 75.49 1005.3
05 23:53 NE 7 16.09 Fair CLR 26.1 20.6 72% 28 75.49 1005.4
05 22:53 Calm 16.09 Fair CLR 25.6 20.6 74% 27 75.46 1005.1
05 21:53 E 7 16.09 Fair CLR 28.3 20 61% 30 75.41 1004.2
05 20:53 E 9 16.09 Fair CLR 29.4 19.4 55% 31 75.36 1003.6
05 19:53 E 11 16.09 Fair CLR 31.1 18.3 46% 32 75.31 1003.0
05 18:53 E 9 16.09 Fair CLR 31.7 18.9 32.2 27.2 47% 33 75.31 1002.8
05 17:53 E 11 16.09 Fair CLR 31.1 18.9 48% 32 75.34 1003.3
05 16:53 NE 6 16.09 Fair CLR 31.7 18.9 47% 33 75.36 1003.6
05 15:53 NE 7 16.09 Fair CLR 31.1 18.3 46% 32 75.41 1004.4
05 14:53 Vrbl 6 16.09 Fair CLR 31.1 17.8 45% 32 75.46 1004.9
05 13:53 Calm 16.09 Fair CLR 29.4 20 57% 31 75.54 1005.9
05 12:53 Vrbl 6 16.09 Fair CLR 27.2 20 27.2 21.1 65% 29 75.59 1006.7
05 11:53 Vrbl 7 16.09 A Few Clouds FEW021 26.1 20 69% 27 75.62 1007.1
05 10:53 S 9 16.09 Overcast OVC017 23.9 19.4 76% 24 75.64 1007.6
05 09:53 SE 15 16.09 Overcast OVC014 23.3 20 82% 75.62 1007.1
05 08:53 SE 17 16.09 Overcast OVC010 22.2 20 87% 75.59 1006.9
05 07:53 SE 17 16.09 Mostly Cloudy BKN010 21.7 19.4 87% 75.54 1006.2
05 06:53 E 15 16.09 Fair CLR 21.1 19.4 23.9 20.6 90% 75.51 1005.6
05 05:53 SE 17 16.09 Fair CLR 21.1 18.9 87% 75.49 1005.3
05 04:53 E 17 16.09 Fair CLR 21.7 18.9 84% 75.46 1005.1
05 03:53 E 13 16.09 Fair CLR 22.2 18.3 79% 75.49 1005.4
05 02:53 SE 15 16.09 Fair CLR 22.8 18.3 76% 75.54 1005.9
05 01:53 SE 17 16.09 Fair CLR 23.3 17.8 71% 75.57 1006.5
05 00:53 E 17 16.09 Fair CLR 23.9 17.8 29.4 23.9 69% 25 75.62 1007.3
04 23:53 SE 19 16.09 Fair CLR 24.4 17.8 67% 25 75.64 1007.5
04 22:53 SE 15 16.09 Fair CLR 25 17.2 62% 26 75.64 1007.7
04 21:53 SE 19 16.09 Fair CLR 26.1 17.2 58% 27 75.62 1007.2
04 20:53 SE 19 16.09 Fair CLR 26.7 16.7 54% 27 75.59 1006.9
Date Time (cdt) Wind (kph) Vis. (km) Weather Sky Cond. Air Dwpt Max. Min. Relative Humidity Wind Chill (°C) Heat Index (°C) altimeter (cm) sea level (mb) 1 hr 3 hr 6 hr
6 hour
Temperature (ºC) Pressure Precipitation (cm)